• Join FlightAware (Why Join?)
  • Login
  • US Flag 
10:46PM EDT


 

Airport Tracker/Info


-or-


 

Live Flight TrackerFlight Track Log ✈ UAL4236 ✈ 23-Apr-2013 ✈ KELP - KIAH

Flight Track Log - Related Links

Times and Time Zones

All times are in EDT time to prevent confusion due to time zone crossing. See the UAL4236 flight status page for this flight to view local times or setup timezone preferences in your user account.

Time Position Orientation Groundspeed Altitude Reporting Facility
EDT Latitude Longitude Course Direction KTS MPH feet Rate Location/Type
12:39PM 31.8006 -106.3933 96° East 167 192 4,500  Level Albuquerque Center
12:40PM 31.7681 -106.4244 219° Southwest 196 226 6,100 1,500 Climbing Albuquerque Center
12:41PM 31.7153 -106.3489 129° Southeast 266 306 7,800 1,620 Climbing Albuquerque Center
12:42PM 31.7356 -105.8270 96° East  Level FlightAware Approximate
12:42PM 31.6872 -106.2600 110° East 289 333 9,500  Level Albuquerque Center
12:43PM 31.7179 -105.6918 100° East  Level FlightAware Approximate
12:43PM 31.6575 -106.1664 110° East 304 350 11,500  Level Albuquerque Center
12:44PM 31.7051 -105.5559 96° East  Level FlightAware Approximate
12:44PM 31.6486 -106.0583 95° East 338 389 12,400  Level Albuquerque Center
12:45PM 31.6408 -105.9378 94° East 367 422 13,200 840 Climbing Albuquerque Center
12:46PM 31.6319 -105.8108 95° East 387 445 14,200 1,080 Climbing Albuquerque Center
12:47PM 31.6228 -105.6531 94° East 402 463 15,500 1,080 Climbing Albuquerque Center
12:48PM 31.6142 -105.5206 94° East 407 468 16,500 960 Climbing Albuquerque Center
12:49PM 31.6047 -105.3850 95° East 415 478 17,600 960 Climbing Albuquerque Center
12:50PM 31.5958 -105.2483 94° East 418 481 18,600 960 Climbing Albuquerque Center
12:51PM 31.5864 -105.1089 95° East 424 488 19,700 960 Climbing Albuquerque Center
12:52PM 31.5767 -104.9681 95° East 430 495 20,700 960 Climbing Albuquerque Center
12:53PM 31.5661 -104.8250 95° East 437 503 21,800 1,020 Climbing Albuquerque Center
12:54PM 31.5564 -104.6808 94° East 441 507 22,900 1,080 Climbing Albuquerque Center
12:55PM 31.5433 -104.5064 95° East 445 512 24,100 1,020 Climbing Albuquerque Center
12:56PM 31.5328 -104.3600 95° East 448 516 25,100 960 Climbing Albuquerque Center
12:57PM 31.5222 -104.2147 95° East 448 516 26,100 960 Climbing Albuquerque Center
12:58PM 31.5108 -104.0697 95° East 447 514 27,200 960 Climbing Albuquerque Center
12:59PM 31.5000 -103.9256 95° East 445 512 28,200 960 Climbing Albuquerque Center
01:00PM 31.4881 -103.7822 96° East 443 510 29,300 960 Climbing Albuquerque Center
01:01PM 31.4758 -103.6319 95° East 443 510 30,300 1,080 Climbing Albuquerque Center
01:02PM 31.4572 -103.4603 97° East 443 510 31,600 1,080 Climbing Albuquerque Center
01:03PM 31.4367 -103.3161 99° East 448 516 32,600 960 Climbing Albuquerque Center
01:04PM 31.4200 -103.1706 98° East 451 519 33,600 960 Climbing Albuquerque Center
01:06PM 31.4008 -103.0258 99° East 452 520 34,700 660 Climbing Albuquerque Center
01:07PM 31.3825 -102.8803 98° East 451 519 35,000 120 Climbing Albuquerque Center
01:08PM 31.3628 -102.7269 99° East 468 539 35,000  Level Albuquerque Center
01:09PM 31.3381 -102.5361 99° East 489 563 35,000  Level Albuquerque Center
01:10PM 31.3192 -102.3886 98° East 523 602 35,000  Level Albuquerque Center
01:11PM 31.2939 -102.1967 99° East 507 583 35,000  Level Albuquerque Center
01:12PM 31.2728 -102.0375 99° East 501 577 35,000  Level Albuquerque Center
01:13PM 31.2511 -101.8694 99° East 503 579 35,000  Level Albuquerque Center
01:14PM 31.2286 -101.7094 99° East 500 575 35,000  Level Albuquerque Center
01:14PM 31.2161 -101.6156 99° East 498 573 35,000  Level Houston Center
01:16PM 31.1928 -101.4544 100° East 501 577 35,000  Level Houston Center
01:17PM 31.1683 -101.2750 99° East 501 577 35,000  Level Houston Center
01:18PM 31.1475 -101.1131 99° East 505 581 35,000  Level Houston Center
01:19PM 31.1244 -100.9517 99° East 506 582 35,000  Level Houston Center
01:20PM 31.1006 -100.7894 100° East 506 582 35,000  Level Houston Center
01:21PM 31.0778 -100.6264 99° East 508 585 35,000  Level Houston Center
01:22PM 31.0489 -100.4289 100° East 513 590 35,000  Level Houston Center
01:23PM 31.0250 -100.2639 100° East 514 592 35,000  Level Houston Center
01:24PM 31.0000 -100.0983 100° East 518 596 35,000  Level Houston Center
01:25PM 30.9753 -99.9339 100° East 515 593 35,000  Level Houston Center
01:26PM 30.9489 -99.7664 100° East 522 601 35,000  Level Houston Center
01:27PM 30.9247 -99.5994 100° East 524 603 35,000  Level Houston Center
01:28PM 30.9089 -99.4292 96° East 532 612 35,000  Level Houston Center
01:29PM 30.9078 -99.2236 90° East 529 609 35,000  Level Houston Center
01:30PM 30.9042 -99.0572 91° East 531 611 35,000  Level Houston Center
01:31PM 30.9003 -98.8836 91° East 532 612 35,000  Level Houston Center
01:32PM 30.8975 -98.7122 91° East 528 608 35,000  Level Houston Center
01:33PM 30.8931 -98.5408 92° East 526 605 35,000 -780 Level Houston Center
01:34PM 30.8906 -98.3683 91° East 528 608 33,400 -2,040 Descending Houston Center
01:35PM 30.8858 -98.1706 92° East 520 598 30,800 -2,040 Descending Houston Center
01:36PM 30.8833 -98.0100 91° East 497 572 29,300 -900 Descending Houston Center
01:37PM 30.8789 -97.8500 92° East 492 566 29,000 -420 Descending Houston Center
01:38PM 30.8739 -97.6925 92° East 485 558 28,500 -780 Descending Houston Center
01:39PM 30.8683 -97.5308 92° East 494 568 27,500 -780 Descending Houston Center
01:40PM 30.8617 -97.3675 93° East 505 581 27,000 -300 Descending Houston Center
01:41PM 30.8214 -97.1953 105° East 486 559 27,000  Level Houston Center
01:42PM 30.7817 -97.0450 107° East 486 559 27,000  Level Houston Center
01:43PM 30.7383 -96.8919 108° East 493 567 27,000 -600 Level Houston Center
01:44PM 30.6947 -96.7364 108° East 503 579 25,800 -1,980 Descending Houston Center
01:45PM 30.6525 -96.5850 108° East 490 564 23,000 -2,760 Descending Houston Center
01:46PM 30.6161 -96.4414 106° East 469 540 20,100 -2,880 Descending Houston Center
01:47PM 30.5783 -96.3089 108° East 439 505 17,100 -3,180 Descending Houston Center
01:48PM 30.5372 -96.1606 108° East 416 479 13,700 -2,940 Descending Houston Center
01:50PM 30.5047 -96.0436 108° East 388 447 11,100 -1,860 Descending Houston Center
01:50PM 30.4667 -95.9461 114° Southeast 347 399 10,100 -600 Descending Houston Center
01:51PM 30.3872 -95.9022 155° Southeast 343 395 10,000 -60 Descending Houston Center
01:53PM 30.2811 -95.8639 163° South 343 395 10,000 -480 Level Houston Center
01:54PM 30.2100 -95.8406 164° South 274 315 9,000 -1,260 Descending Houston Center
01:55PM 30.1383 -95.8150 163° South 266 306 7,600 -1,440 Descending Houston Center
01:56PM 30.0669 -95.7919 164° South 260 299 6,100 -1,440 Descending Houston Center
01:57PM 30.0103 -95.7431 143° Southeast 245 282 4,600 -1,080 Descending Houston Center
01:58PM 29.9908 -95.6656 106° East 250 288 3,900 -360 Descending Houston Center
01:59PM 29.9942 -95.5856 87° East 242 278 3,900 -600 Level Houston Center
02:00PM 29.9933 -95.5061 91° East 239 275 2,700 -1,140 Descending Houston Center
02:01PM 29.9919 -95.4461 92° East 191 220 1,700 -1,080 Descending Houston Center